createdAt,value
2023-03-27T00:01:59.608Z,92972.06
2023-03-27T00:07:03.994Z,92981.97
2023-03-27T00:12:07.731Z,92976.41
2023-03-27T00:17:11.409Z,92965.81
2023-03-27T00:22:14.468Z,92963.34
2023-03-27T00:27:17.971Z,92932.50
2023-03-27T00:32:21.897Z,92934.22
2023-03-27T00:37:25.475Z,92923.06
2023-03-27T00:42:29.186Z,92918.09
2023-03-27T00:47:36.078Z,92927.66
2023-03-27T00:52:42.682Z,92924.81
2023-03-27T00:57:50.669Z,92912.31
2023-03-27T01:02:55.848Z,92907.50
2023-03-27T01:08:05.390Z,92886.25
2023-03-27T01:13:26.503Z,92890.38
2023-03-27T01:18:50.377Z,92888.13
2023-03-27T01:24:13.014Z,92882.03
2023-03-27T01:29:30.793Z,92880.47
2023-03-27T01:35:06.643Z,92880.31
2023-03-27T01:40:20.793Z,92879.00
2023-03-27T01:45:33.977Z,92869.28
2023-03-27T01:50:55.041Z,92858.78
2023-03-27T01:56:11.497Z,92845.13
2023-03-27T02:01:21.280Z,92832.19
2023-03-27T02:06:34.382Z,92822.38
2023-03-27T02:11:47.644Z,92800.88
2023-03-27T02:16:58.507Z,92798.38
2023-03-27T02:22:02.382Z,92801.97
2023-03-27T02:27:35.385Z,92794.72
2023-03-27T02:32:59.289Z,92783.44
2023-03-27T02:38:09.588Z,92765.00
2023-03-27T02:43:46.712Z,92785.78
2023-03-27T02:49:01.902Z,92772.13
2023-03-27T02:54:06.865Z,92761.25
2023-03-27T02:59:19.184Z,92758.47
2023-03-27T03:04:25.334Z,92758.66
2023-03-27T03:09:48.824Z,92740.72
2023-03-27T03:14:52.689Z,92748.31
2023-03-27T03:19:56.739Z,92744.88
2023-03-27T03:25:01.850Z,92748.38
2023-03-27T03:30:07.831Z,92736.28
2023-03-27T03:35:17.253Z,92749.53
2023-03-27T03:40:22.463Z,92752.66
2023-03-27T03:45:31.157Z,92757.41
2023-03-27T03:50:36.309Z,92751.47
2023-03-27T03:55:40.578Z,92755.09
2023-03-27T04:00:43.823Z,92757.16
2023-03-27T04:06:01.966Z,92750.34
2023-03-27T04:11:05.969Z,92757.25
2023-03-27T04:16:29.527Z,92750.78
2023-03-27T04:21:36.735Z,92787.22
2023-03-27T04:26:41.587Z,92767.34
2023-03-27T04:32:10.668Z,92812.59
2023-03-27T04:37:16.685Z,92807.22
2023-03-27T04:42:43.270Z,92805.50
2023-03-27T04:47:49.283Z,92787.31
2023-03-27T04:52:58.967Z,92816.69
2023-03-27T04:58:05.957Z,92825.56
2023-03-27T05:03:11.440Z,92826.38
2023-03-27T05:08:31.610Z,92823.66
2023-03-27T05:13:36.574Z,92827.16
2023-03-27T05:18:42.340Z,92852.25
2023-03-27T05:23:46.419Z,92823.94
2023-03-27T05:28:51.591Z,92844.69
2023-03-27T05:33:55.282Z,92824.53
2023-03-27T05:38:59.867Z,92828.28
2023-03-27T05:44:09.571Z,92839.44
2023-03-27T05:49:18.439Z,92861.69
2023-03-27T05:54:26.772Z,92844.31
2023-03-27T05:59:36.078Z,92870.63
2023-03-27T06:04:53.582Z,92850.94
2023-03-27T06:10:04.520Z,92853.16
2023-03-27T06:15:19.568Z,92852.75
2023-03-27T06:20:43.672Z,92863.41
2023-03-27T06:25:48.148Z,92848.47
2023-03-27T06:30:51.777Z,92865.47
2023-03-27T06:36:06.273Z,92824.09
2023-03-27T06:41:12.221Z,92842.81
2023-03-27T06:46:45.027Z,92847.19
2023-03-27T06:51:59.636Z,92857.03
2023-03-27T06:57:03.618Z,92855.19
2023-03-27T07:02:25.915Z,92858.13
2023-03-27T07:07:49.370Z,92854.22
2023-03-27T07:12:57.131Z,92867.41
2023-03-27T07:18:03.569Z,92857.25
2023-03-27T07:23:07.684Z,92881.00
2023-03-27T07:28:33.023Z,92862.09
2023-03-27T07:33:44.950Z,92889.09
2023-03-27T07:38:50.056Z,92877.16
2023-03-27T07:44:04.332Z,92887.75
2023-03-27T07:49:19.482Z,92895.53
2023-03-27T07:54:44.608Z,92886.78
2023-03-27T07:59:52.908Z,92899.78
2023-03-27T08:05:20.187Z,92909.16
2023-03-27T08:10:39.781Z,92922.00
2023-03-27T08:15:45.185Z,92925.72
2023-03-27T08:20:59.525Z,92906.22
2023-03-27T08:26:04.327Z,92955.66
2023-03-27T08:31:17.141Z,92966.06
2023-03-27T08:36:23.309Z,92946.00
2023-03-27T08:41:38.723Z,92944.03
2023-03-27T08:47:10.962Z,92966.25
2023-03-27T08:52:25.660Z,92973.19
2023-03-27T08:57:33.098Z,92976.63
2023-03-27T09:02:51.913Z,92958.53
2023-03-27T09:08:24.336Z,92984.66
2023-03-27T09:13:35.830Z,92967.31
2023-03-27T09:18:46.857Z,92941.66
2023-03-27T09:24:00.605Z,92941.31
2023-03-27T09:29:42.078Z,92948.25
2023-03-27T09:35:06.333Z,92937.47
2023-03-27T09:40:26.070Z,92924.84
2023-03-27T09:45:33.569Z,92929.78
2023-03-27T09:50:49.559Z,92911.31
2023-03-27T09:56:16.625Z,92922.06
2023-03-27T10:01:31.148Z,92933.03
2023-03-27T10:07:22.747Z,92938.47
2023-03-27T10:12:54.118Z,92937.84
2023-03-27T10:18:21.839Z,92944.47
2023-03-27T10:23:44.362Z,92958.59
2023-03-27T10:29:18.361Z,92952.44
2023-03-27T10:34:52.918Z,92952.66
2023-03-27T10:40:07.800Z,92954.09
2023-03-27T10:45:21.071Z,92945.94
2023-03-27T10:50:46.321Z,92931.22
2023-03-27T10:56:39.724Z,92935.59
2023-03-27T11:01:48.470Z,92933.88
2023-03-27T11:07:00.118Z,92929.50
2023-03-27T11:12:12.103Z,92922.75
2023-03-27T11:17:44.975Z,92915.41
2023-03-27T11:23:30.288Z,92913.03
2023-03-27T11:29:04.563Z,92897.47
2023-03-27T11:34:29.104Z,92912.19
2023-03-27T11:40:01.573Z,92901.44
2023-03-27T11:45:09.704Z,92876.31
2023-03-27T11:50:36.364Z,92876.81
2023-03-27T11:55:57.257Z,92851.72
2023-03-27T12:01:10.521Z,92866.19
2023-03-27T12:06:50.162Z,92872.03
2023-03-27T12:12:24.933Z,92852.97
2023-03-27T12:17:56.268Z,92847.72
2023-03-27T12:23:26.040Z,92845.22
2023-03-27T12:29:00.716Z,92852.31
2023-03-27T12:34:53.371Z,92834.06
2023-03-27T12:40:01.972Z,92825.44
2023-03-27T12:45:28.296Z,92833.84
2023-03-27T12:50:56.705Z,92828.28
2023-03-27T12:56:13.584Z,92827.69
2023-03-27T13:01:24.728Z,92814.25
2023-03-27T13:07:05.504Z,92822.53
2023-03-27T13:12:40.708Z,92813.84
2023-03-27T13:18:01.579Z,92821.50
2023-03-27T13:23:33.167Z,92830.09
2023-03-27T13:28:48.827Z,92817.44
2023-03-27T13:34:14.381Z,92805.94
2023-03-27T13:39:25.113Z,92817.44
2023-03-27T13:44:40.149Z,92821.00
2023-03-27T13:50:04.540Z,92809.16
2023-03-27T13:55:19.465Z,92811.28
2023-03-27T14:01:18.315Z,92819.09
2023-03-27T14:07:01.435Z,92834.22
2023-03-27T14:12:12.774Z,92821.94
2023-03-27T14:18:01.946Z,92836.53
2023-03-27T14:23:24.052Z,92847.31
2023-03-27T14:28:57.743Z,92849.00
2023-03-27T14:34:10.745Z,92862.81
2023-03-27T14:39:18.369Z,92871.94
2023-03-27T14:44:28.080Z,92860.53
2023-03-27T14:49:39.634Z,92876.28
2023-03-27T14:54:55.005Z,92868.38
2023-03-27T15:00:07.169Z,92863.97
2023-03-27T15:05:22.859Z,92867.25
2023-03-27T15:10:33.932Z,92873.28
2023-03-27T15:15:47.299Z,92865.97
2023-03-27T15:20:51.428Z,92863.69
2023-03-27T15:26:20.913Z,92860.84
2023-03-27T15:31:25.807Z,92840.63
2023-03-27T15:36:33.467Z,92871.41
2023-03-27T15:41:41.242Z,92894.47
2023-03-27T15:46:54.510Z,92906.75
2023-03-27T15:52:00.758Z,92925.75
2023-03-27T15:57:11.724Z,92927.75
2023-03-27T16:02:18.529Z,92951.66
2023-03-27T16:07:27.732Z,92949.28
2023-03-27T16:12:55.411Z,92953.72
2023-03-27T16:18:04.554Z,92952.38
2023-03-27T16:23:08.114Z,92943.59
2023-03-27T16:28:14.513Z,92955.31
2023-03-27T16:33:21.488Z,92942.44
2023-03-27T16:38:25.806Z,92947.25
2023-03-27T16:43:28.802Z,92981.59
2023-03-27T16:48:32.950Z,92988.88
2023-03-27T16:53:36.448Z,92983.44
2023-03-27T16:58:40.901Z,92985.56
2023-03-27T17:03:44.583Z,93007.34
2023-03-27T17:08:49.524Z,93010.00
2023-03-27T17:13:53.033Z,93025.75
2023-03-27T17:18:57.972Z,93023.84
2023-03-27T17:24:02.369Z,93031.00
2023-03-27T17:29:08.720Z,93020.63
2023-03-27T17:34:12.635Z,93010.50
2023-03-27T17:39:16.043Z,93024.69
2023-03-27T17:44:19.794Z,93032.13
2023-03-27T17:49:23.707Z,93019.22
2023-03-27T17:54:26.770Z,93020.84
2023-03-27T17:59:33.819Z,93009.53
2023-03-27T18:04:37.635Z,93020.03
2023-03-27T18:09:41.931Z,93004.78
2023-03-27T18:14:45.716Z,93020.47
2023-03-27T18:19:48.773Z,93007.66
2023-03-27T18:24:52.847Z,93040.78
2023-03-27T18:29:56.372Z,93049.38
2023-03-27T18:35:00.275Z,93058.78
2023-03-27T18:40:08.381Z,93050.59
2023-03-27T18:45:13.511Z,93067.78
2023-03-27T18:50:17.993Z,93064.25
2023-03-27T18:55:29.968Z,93040.47
2023-03-27T19:00:38.014Z,93052.91
2023-03-27T19:05:42.184Z,93077.44
2023-03-27T19:10:45.875Z,93062.16
2023-03-27T19:15:58.414Z,93060.13
2023-03-27T19:21:27.532Z,93062.47
2023-03-27T19:26:42.389Z,93060.56
2023-03-27T19:31:46.065Z,93049.38
2023-03-27T19:36:52.039Z,93061.72
2023-03-27T19:41:56.163Z,93061.63
2023-03-27T19:46:59.350Z,93069.50
2023-03-27T19:52:03.516Z,93075.31
2023-03-27T19:57:07.375Z,93073.34
2023-03-27T20:02:14.741Z,93061.84
2023-03-27T20:07:18.941Z,93056.06
2023-03-27T20:12:23.464Z,93087.38
2023-03-27T20:17:28.384Z,93095.47
2023-03-27T20:22:40.695Z,93096.31
2023-03-27T20:27:50.545Z,93090.06
2023-03-27T20:32:55.153Z,93116.53
2023-03-27T20:38:04.958Z,93129.31
2023-03-27T20:43:13.017Z,93118.03
2023-03-27T20:48:18.381Z,93134.81
2023-03-27T20:53:33.935Z,93139.47
2023-03-27T20:58:39.623Z,93143.78
2023-03-27T21:03:46.437Z,93164.06
2023-03-27T21:08:50.984Z,93166.78
2023-03-27T21:13:54.448Z,93169.88
2023-03-27T21:18:58.305Z,93144.28
2023-03-27T21:24:09.915Z,93166.16
2023-03-27T21:29:15.613Z,93158.34
2023-03-27T21:34:19.512Z,93172.38
2023-03-27T21:39:23.506Z,93170.00
2023-03-27T21:44:27.285Z,93157.91
2023-03-27T21:49:30.767Z,93167.69
2023-03-27T21:54:34.276Z,93168.88
2023-03-27T21:59:38.397Z,93167.69
2023-03-27T22:04:41.596Z,93172.31
2023-03-27T22:09:46.153Z,93164.97
2023-03-27T22:14:49.497Z,93164.19
2023-03-27T22:19:54.850Z,93168.47
2023-03-27T22:24:58.765Z,93168.84
2023-03-27T22:30:02.901Z,93175.47
2023-03-27T22:35:07.310Z,93178.16
2023-03-27T22:40:11.281Z,93178.59
2023-03-27T22:45:14.972Z,93186.41
2023-03-27T22:50:18.937Z,93202.81
2023-03-27T22:55:22.464Z,93205.88
2023-03-27T23:00:26.696Z,93209.03
2023-03-27T23:05:30.576Z,93199.66
2023-03-27T23:10:34.108Z,93198.13
2023-03-27T23:15:38.586Z,93195.75
2023-03-27T23:20:42.087Z,93188.28
2023-03-27T23:25:46.674Z,93229.69
2023-03-27T23:31:01.466Z,93231.97
2023-03-27T23:36:08.028Z,93248.81
2023-03-27T23:41:13.950Z,93262.84
2023-03-27T23:46:18.577Z,93264.91
2023-03-27T23:51:22.582Z,93258.13
2023-03-27T23:56:26.446Z,93250.16
